Paint Rock, TX (76866)

9:06 AM CST on March 03, 2015 (GMT -0600)
Hutchings Ave | Change Station
CLOSE
Current Station
Personal Weather Station
Location: Ballinger, TX
Elevation: 1631 ft
Nearby Weather Stations

Elev 1631 ft 31.74 °N, 99.95 °W | Updated 34 seconds ago

Overcast
Overcast
42.4 °F
Feels Like 42 °F
N
0.0
Wind Variable Wind from NNE
Gusts 0.0 mph

Today
High -- | Low -- °F
--% Chance of Precip.
Yesterday
High -- | Low -- °F
Precip. -- in
7:04 AM 6:39 PM
Waxing Gibbous, 96% visible
Pressure 29.95 in
Visibility 3.0 miles
Clouds Overcast 600 ft
Windchill 42 °F
Dew Point 41 °F
Humidity 96%
Rainfall 0.00 in
Snow Depth Not available.
UV 1 out of 12
Pollen 8.90 out of 12
Air Quality Not available.
Flu Activity Not available.
SPECI KSJT 031458Z 03003KT 3SM BR OVC006 06/06 A2995 RMK AO2 T00610056

More Conditions Fewer Conditions

Pressure 29.95 in
Visibility 3.0 miles
Clouds Overcast 600 ft
Windchill 42 °F
Dew Point 41 °F
Humidity 96%
Rainfall 0.00 in
Snow Depth Not available.
UV 1 out of 12
Pollen 8.90 out of 12
Air Quality Not available.
Flu Activity Not available.
SPECI KSJT 031458Z 03003KT 3SM BR OVC006 06/06 A2995 RMK AO2 T00610056

More Conditions Fewer Conditions

10-Day Weather Forecast

Almanac

Astronomy

Mar. 03, 2015 Rise Set
Actual Time
Civil Twilight
Nautical Twilight
Astronomical Twilight
Moon
Length of Visible Light
Length of Day
Tomorrow will be .
, % of the Moon is Illuminated

Today's Extremes

State Highs State Lows

Community

WunderPhotos

Upload Photos

1,802,133 photos uploaded!

WunderBlogs® & News

Nearby

Air Quality

  Air Quality AQ Index Pollutant
Not available.

Snow Depth

Station Depth Elevation

Earthquake Activity

City Distance Mag. Time & Date
Minimum magnitude displayed is 2.5.

Coastal Water Temperatures

Place Temperature

Nearby Weather Stations